sensor_id;sensor_type;location;lat;lon;timestamp;P1;durP1;ratioP1;P2;durP2;ratioP2
69989;SDS011;57331;52.054;5.294;2022-10-24T00:01:09;8.32;;;2.80;;
69989;SDS011;57331;52.054;5.294;2022-10-24T00:03:36;8.35;;;2.65;;
69989;SDS011;57331;52.054;5.294;2022-10-24T00:06:04;8.00;;;2.67;;
69989;SDS011;57331;52.054;5.294;2022-10-24T00:08:33;8.40;;;2.47;;
69989;SDS011;57331;52.054;5.294;2022-10-24T00:11:00;7.00;;;2.58;;
69989;SDS011;57331;52.054;5.294;2022-10-24T00:13:27;8.38;;;2.78;;
69989;SDS011;57331;52.054;5.294;2022-10-24T00:15:55;9.15;;;2.15;;
69989;SDS011;57331;52.054;5.294;2022-10-24T00:18:22;7.43;;;2.38;;
69989;SDS011;57331;52.054;5.294;2022-10-24T00:20:49;8.65;;;2.88;;
69989;SDS011;57331;52.054;5.294;2022-10-24T00:23:16;13.35;;;2.55;;
69989;SDS011;57331;52.054;5.294;2022-10-24T00:25:43;9.65;;;2.33;;
69989;SDS011;57331;52.054;5.294;2022-10-24T00:28:11;11.52;;;2.90;;
69989;SDS011;57331;52.054;5.294;2022-10-24T00:30:38;8.95;;;2.58;;
69989;SDS011;57331;52.054;5.294;2022-10-24T00:33:05;12.75;;;2.85;;
69989;SDS011;57331;52.054;5.294;2022-10-24T00:35:32;9.88;;;2.58;;
69989;SDS011;57331;52.054;5.294;2022-10-24T00:38:00;6.07;;;2.17;;
69989;SDS011;57331;52.054;5.294;2022-10-24T00:40:27;6.80;;;2.30;;
69989;SDS011;57331;52.054;5.294;2022-10-24T00:42:54;8.07;;;2.38;;
69989;SDS011;57331;52.054;5.294;2022-10-24T00:48:14;7.43;;;2.30;;
69989;SDS011;57331;52.054;5.294;2022-10-24T00:50:46;11.52;;;2.10;;
69989;SDS011;57331;52.054;5.294;2022-10-24T00:53:16;13.02;;;1.83;;
69989;SDS011;57331;52.054;5.294;2022-10-24T00:55:45;8.65;;;2.50;;
69989;SDS011;57331;52.054;5.294;2022-10-24T00:58:15;9.30;;;2.30;;
69989;SDS011;57331;52.054;5.294;2022-10-24T01:00:44;7.85;;;2.15;;
69989;SDS011;57331;52.054;5.294;2022-10-24T01:03:11;7.15;;;2.15;;
69989;SDS011;57331;52.054;5.294;2022-10-24T01:08:47;6.95;;;1.65;;
69989;SDS011;57331;52.054;5.294;2022-10-24T01:11:31;14.48;;;1.95;;
69989;SDS011;57331;52.054;5.294;2022-10-24T01:17:38;8.88;;;1.90;;
69989;SDS011;57331;52.054;5.294;2022-10-24T01:22:58;13.68;;;2.53;;
69989;SDS011;57331;52.054;5.294;2022-10-24T01:30:30;9.45;;;2.15;;
69989;SDS011;57331;52.054;5.294;2022-10-24T01:33:11;5.18;;;1.67;;
69989;SDS011;57331;52.054;5.294;2022-10-24T01:38:58;5.80;;;1.90;;
69989;SDS011;57331;52.054;5.294;2022-10-24T01:41:28;11.10;;;2.42;;
69989;SDS011;57331;52.054;5.294;2022-10-24T01:43:58;7.53;;;2.53;;
69989;SDS011;57331;52.054;5.294;2022-10-24T01:46:53;7.47;;;2.13;;
69989;SDS011;57331;52.054;5.294;2022-10-24T01:49:24;8.20;;;2.20;;
69989;SDS011;57331;52.054;5.294;2022-10-24T01:51:56;12.80;;;2.53;;
69989;SDS011;57331;52.054;5.294;2022-10-24T01:54:28;5.72;;;2.17;;
69989;SDS011;57331;52.054;5.294;2022-10-24T01:56:56;10.35;;;2.65;;
69989;SDS011;57331;52.054;5.294;2022-10-24T02:02:07;8.07;;;2.05;;
69989;SDS011;57331;52.054;5.294;2022-10-24T02:04:48;8.40;;;2.10;;
69989;SDS011;57331;52.054;5.294;2022-10-24T02:07:20;7.10;;;2.00;;
69989;SDS011;57331;52.054;5.294;2022-10-24T02:09:49;8.23;;;2.58;;
69989;SDS011;57331;52.054;5.294;2022-10-24T02:12:27;9.55;;;2.40;;
69989;SDS011;57331;52.054;5.294;2022-10-24T02:15:04;9.85;;;2.40;;
69989;SDS011;57331;52.054;5.294;2022-10-24T02:17:36;6.40;;;2.10;;
69989;SDS011;57331;52.054;5.294;2022-10-24T02:20:04;13.35;;;3.25;;
69989;SDS011;57331;52.054;5.294;2022-10-24T02:22:37;9.50;;;2.63;;
69989;SDS011;57331;52.054;5.294;2022-10-24T02:25:26;8.70;;;2.72;;
69989;SDS011;57331;52.054;5.294;2022-10-24T02:28:08;6.03;;;2.00;;
69989;SDS011;57331;52.054;5.294;2022-10-24T02:30:46;4.90;;;2.13;;
69989;SDS011;57331;52.054;5.294;2022-10-24T02:33:17;8.50;;;2.40;;
69989;SDS011;57331;52.054;5.294;2022-10-24T02:35:44;6.90;;;2.00;;
69989;SDS011;57331;52.054;5.294;2022-10-24T02:38:15;6.35;;;2.25;;
69989;SDS011;57331;52.054;5.294;2022-10-24T02:40:55;7.75;;;2.88;;
69989;SDS011;57331;52.054;5.294;2022-10-24T02:43:23;8.80;;;2.40;;
69989;SDS011;57331;52.054;5.294;2022-10-24T02:45:52;6.03;;;2.60;;
69989;SDS011;57331;52.054;5.294;2022-10-24T02:48:21;6.95;;;2.13;;
69989;SDS011;57331;52.054;5.294;2022-10-24T02:50:52;8.50;;;2.28;;
69989;SDS011;57331;52.054;5.294;2022-10-24T02:53:20;7.53;;;2.10;;
69989;SDS011;57331;52.054;5.294;2022-10-24T02:55:50;6.80;;;2.10;;
69989;SDS011;57331;52.054;5.294;2022-10-24T02:58:18;6.03;;;2.15;;
69989;SDS011;57331;52.054;5.294;2022-10-24T03:00:45;8.90;;;2.60;;
69989;SDS011;57331;52.054;5.294;2022-10-24T03:03:12;6.72;;;2.10;;
69989;SDS011;57331;52.054;5.294;2022-10-24T03:05:39;6.45;;;2.00;;
69989;SDS011;57331;52.054;5.294;2022-10-24T03:08:06;9.55;;;2.97;;
69989;SDS011;57331;52.054;5.294;2022-10-24T03:10:34;5.57;;;1.80;;
69989;SDS011;57331;52.054;5.294;2022-10-24T03:13:01;3.65;;;1.80;;
69989;SDS011;57331;52.054;5.294;2022-10-24T03:15:29;7.35;;;2.20;;
69989;SDS011;57331;52.054;5.294;2022-10-24T03:17:56;9.70;;;2.10;;
69989;SDS011;57331;52.054;5.294;2022-10-24T03:20:23;6.50;;;1.90;;
69989;SDS011;57331;52.054;5.294;2022-10-24T03:22:50;6.65;;;2.40;;
69989;SDS011;57331;52.054;5.294;2022-10-24T03:25:17;5.35;;;1.98;;
69989;SDS011;57331;52.054;5.294;2022-10-24T03:27:46;7.90;;;2.47;;
69989;SDS011;57331;52.054;5.294;2022-10-24T03:30:13;6.53;;;1.70;;
69989;SDS011;57331;52.054;5.294;2022-10-24T03:32:41;4.93;;;1.65;;
69989;SDS011;57331;52.054;5.294;2022-10-24T03:35:08;7.47;;;1.92;;
69989;SDS011;57331;52.054;5.294;2022-10-24T03:37:39;7.25;;;1.90;;
69989;SDS011;57331;52.054;5.294;2022-10-24T03:40:07;3.65;;;1.42;;
69989;SDS011;57331;52.054;5.294;2022-10-24T03:42:35;7.28;;;2.05;;
69989;SDS011;57331;52.054;5.294;2022-10-24T03:45:01;6.95;;;1.58;;
69989;SDS011;57331;52.054;5.294;2022-10-24T03:47:29;5.93;;;1.50;;
69989;SDS011;57331;52.054;5.294;2022-10-24T03:49:56;5.80;;;1.60;;
69989;SDS011;57331;52.054;5.294;2022-10-24T03:52:24;7.30;;;1.58;;
69989;SDS011;57331;52.054;5.294;2022-10-24T03:54:51;5.55;;;1.70;;
69989;SDS011;57331;52.054;5.294;2022-10-24T03:57:19;5.85;;;1.77;;
69989;SDS011;57331;52.054;5.294;2022-10-24T03:59:51;5.68;;;1.48;;
69989;SDS011;57331;52.054;5.294;2022-10-24T04:02:18;3.53;;;1.30;;
69989;SDS011;57331;52.054;5.294;2022-10-24T04:04:45;7.38;;;1.65;;
69989;SDS011;57331;52.054;5.294;2022-10-24T04:07:12;6.80;;;1.80;;
69989;SDS011;57331;52.054;5.294;2022-10-24T04:09:39;9.13;;;1.80;;
69989;SDS011;57331;52.054;5.294;2022-10-24T04:12:07;7.85;;;1.80;;
69989;SDS011;57331;52.054;5.294;2022-10-24T04:14:34;6.60;;;1.70;;
69989;SDS011;57331;52.054;5.294;2022-10-24T04:17:02;10.80;;;1.67;;
69989;SDS011;57331;52.054;5.294;2022-10-24T04:19:29;5.88;;;1.38;;
69989;SDS011;57331;52.054;5.294;2022-10-24T04:21:56;12.53;;;1.50;;
69989;SDS011;57331;52.054;5.294;2022-10-24T04:24:24;4.18;;;1.30;;
69989;SDS011;57331;52.054;5.294;2022-10-24T04:26:51;8.70;;;1.70;;
69989;SDS011;57331;52.054;5.294;2022-10-24T04:29:18;10.15;;;1.83;;
69989;SDS011;57331;52.054;5.294;2022-10-24T04:31:44;7.88;;;1.65;;
69989;SDS011;57331;52.054;5.294;2022-10-24T04:34:11;9.85;;;1.60;;
69989;SDS011;57331;52.054;5.294;2022-10-24T04:36:38;7.00;;;1.85;;
69989;SDS011;57331;52.054;5.294;2022-10-24T04:39:06;5.10;;;1.35;;
69989;SDS011;57331;52.054;5.294;2022-10-24T04:41:33;4.90;;;1.42;;
69989;SDS011;57331;52.054;5.294;2022-10-24T04:44:00;5.30;;;1.35;;
69989;SDS011;57331;52.054;5.294;2022-10-24T04:46:27;14.23;;;1.85;;
69989;SDS011;57331;52.054;5.294;2022-10-24T04:48:55;10.95;;;1.88;;
69989;SDS011;57331;52.054;5.294;2022-10-24T04:51:22;6.55;;;1.50;;
69989;SDS011;57331;52.054;5.294;2022-10-24T04:53:49;4.80;;;1.50;;
69989;SDS011;57331;52.054;5.294;2022-10-24T04:56:17;4.97;;;1.60;;
69989;SDS011;57331;52.054;5.294;2022-10-24T04:58:44;6.50;;;1.63;;
69989;SDS011;57331;52.054;5.294;2022-10-24T05:01:11;10.38;;;1.77;;
69989;SDS011;57331;52.054;5.294;2022-10-24T05:03:38;7.45;;;1.60;;
69989;SDS011;57331;52.054;5.294;2022-10-24T05:06:06;6.57;;;1.60;;
69989;SDS011;57331;52.054;5.294;2022-10-24T05:08:33;6.00;;;1.42;;
69989;SDS011;57331;52.054;5.294;2022-10-24T05:11:01;7.82;;;1.65;;
69989;SDS011;57331;52.054;5.294;2022-10-24T05:13:28;10.23;;;1.55;;
69989;SDS011;57331;52.054;5.294;2022-10-24T05:16:01;8.05;;;1.60;;
69989;SDS011;57331;52.054;5.294;2022-10-24T05:18:28;3.25;;;1.25;;
69989;SDS011;57331;52.054;5.294;2022-10-24T05:20:56;6.68;;;1.90;;
69989;SDS011;57331;52.054;5.294;2022-10-24T05:23:23;5.65;;;1.50;;
69989;SDS011;57331;52.054;5.294;2022-10-24T05:25:51;5.75;;;1.55;;
69989;SDS011;57331;52.054;5.294;2022-10-24T05:28:18;6.82;;;1.80;;
69989;SDS011;57331;52.054;5.294;2022-10-24T05:30:46;7.03;;;1.70;;
69989;SDS011;57331;52.054;5.294;2022-10-24T05:33:13;3.95;;;1.33;;
69989;SDS011;57331;52.054;5.294;2022-10-24T05:35:40;7.97;;;1.48;;
69989;SDS011;57331;52.054;5.294;2022-10-24T05:38:07;4.95;;;1.65;;
69989;SDS011;57331;52.054;5.294;2022-10-24T05:40:34;7.95;;;1.50;;
69989;SDS011;57331;52.054;5.294;2022-10-24T05:43:02;6.78;;;1.40;;
69989;SDS011;57331;52.054;5.294;2022-10-24T05:45:29;7.47;;;1.83;;
69989;SDS011;57331;52.054;5.294;2022-10-24T05:47:56;5.43;;;1.33;;
69989;SDS011;57331;52.054;5.294;2022-10-24T05:50:23;10.52;;;1.95;;
69989;SDS011;57331;52.054;5.294;2022-10-24T05:52:52;7.57;;;1.50;;
69989;SDS011;57331;52.054;5.294;2022-10-24T05:55:19;7.50;;;2.13;;
69989;SDS011;57331;52.054;5.294;2022-10-24T05:57:46;4.50;;;1.63;;
69989;SDS011;57331;52.054;5.294;2022-10-24T06:00:15;8.35;;;1.80;;
69989;SDS011;57331;52.054;5.294;2022-10-24T06:02:43;10.23;;;1.80;;
69989;SDS011;57331;52.054;5.294;2022-10-24T06:05:12;6.25;;;1.40;;
69989;SDS011;57331;52.054;5.294;2022-10-24T06:07:39;5.72;;;1.55;;
69989;SDS011;57331;52.054;5.294;2022-10-24T06:10:07;9.18;;;1.90;;
69989;SDS011;57331;52.054;5.294;2022-10-24T06:12:35;6.88;;;1.98;;
69989;SDS011;57331;52.054;5.294;2022-10-24T06:15:03;9.77;;;1.65;;
69989;SDS011;57331;52.054;5.294;2022-10-24T06:17:32;5.07;;;1.50;;
69989;SDS011;57331;52.054;5.294;2022-10-24T06:20:00;8.70;;;2.22;;
69989;SDS011;57331;52.054;5.294;2022-10-24T06:22:26;6.43;;;1.67;;
69989;SDS011;57331;52.054;5.294;2022-10-24T06:24:55;7.35;;;1.73;;
69989;SDS011;57331;52.054;5.294;2022-10-24T06:27:22;6.15;;;1.77;;
69989;SDS011;57331;52.054;5.294;2022-10-24T06:29:49;8.00;;;1.80;;
69989;SDS011;57331;52.054;5.294;2022-10-24T06:32:16;12.88;;;1.75;;
69989;SDS011;57331;52.054;5.294;2022-10-24T06:34:44;8.00;;;1.60;;
69989;SDS011;57331;52.054;5.294;2022-10-24T06:37:11;7.32;;;2.28;;
69989;SDS011;57331;52.054;5.294;2022-10-24T06:39:38;12.23;;;1.95;;
69989;SDS011;57331;52.054;5.294;2022-10-24T06:42:05;8.05;;;2.17;;
69989;SDS011;57331;52.054;5.294;2022-10-24T06:44:34;6.60;;;1.88;;
69989;SDS011;57331;52.054;5.294;2022-10-24T06:47:03;6.72;;;1.67;;
69989;SDS011;57331;52.054;5.294;2022-10-24T06:49:31;6.97;;;2.10;;
69989;SDS011;57331;52.054;5.294;2022-10-24T06:51:58;11.98;;;2.30;;
69989;SDS011;57331;52.054;5.294;2022-10-24T06:54:26;9.70;;;2.15;;
69989;SDS011;57331;52.054;5.294;2022-10-24T06:56:55;7.97;;;1.80;;
69989;SDS011;57331;52.054;5.294;2022-10-24T06:59:22;9.55;;;2.08;;
69989;SDS011;57331;52.054;5.294;2022-10-24T07:01:50;9.05;;;1.80;;
69989;SDS011;57331;52.054;5.294;2022-10-24T07:04:17;8.95;;;1.80;;
69989;SDS011;57331;52.054;5.294;2022-10-24T07:06:44;8.02;;;1.83;;
69989;SDS011;57331;52.054;5.294;2022-10-24T07:09:12;10.55;;;2.10;;
69989;SDS011;57331;52.054;5.294;2022-10-24T07:11:41;11.18;;;1.92;;
69989;SDS011;57331;52.054;5.294;2022-10-24T07:14:08;6.82;;;1.65;;
69989;SDS011;57331;52.054;5.294;2022-10-24T07:16:36;5.95;;;2.15;;
69989;SDS011;57331;52.054;5.294;2022-10-24T07:19:04;8.32;;;2.08;;
69989;SDS011;57331;52.054;5.294;2022-10-24T07:21:31;11.00;;;1.92;;
69989;SDS011;57331;52.054;5.294;2022-10-24T07:23:59;8.40;;;1.70;;
69989;SDS011;57331;52.054;5.294;2022-10-24T07:26:27;5.10;;;1.65;;
69989;SDS011;57331;52.054;5.294;2022-10-24T07:28:55;8.35;;;1.90;;
69989;SDS011;57331;52.054;5.294;2022-10-24T07:31:32;8.05;;;1.67;;
69989;SDS011;57331;52.054;5.294;2022-10-24T07:34:01;8.95;;;1.90;;
69989;SDS011;57331;52.054;5.294;2022-10-24T07:36:29;9.35;;;2.03;;
69989;SDS011;57331;52.054;5.294;2022-10-24T07:38:57;11.20;;;1.70;;
69989;SDS011;57331;52.054;5.294;2022-10-24T07:41:26;7.78;;;2.10;;
69989;SDS011;57331;52.054;5.294;2022-10-24T07:43:55;7.53;;;1.67;;
69989;SDS011;57331;52.054;5.294;2022-10-24T07:46:23;9.20;;;2.00;;
69989;SDS011;57331;52.054;5.294;2022-10-24T07:48:51;5.30;;;1.67;;
69989;SDS011;57331;52.054;5.294;2022-10-24T07:51:19;7.15;;;1.70;;
69989;SDS011;57331;52.054;5.294;2022-10-24T07:53:46;10.00;;;2.20;;
69989;SDS011;57331;52.054;5.294;2022-10-24T07:56:14;5.95;;;1.73;;
69989;SDS011;57331;52.054;5.294;2022-10-24T07:58:42;9.65;;;1.83;;
69989;SDS011;57331;52.054;5.294;2022-10-24T08:01:20;10.48;;;1.80;;
69989;SDS011;57331;52.054;5.294;2022-10-24T08:03:50;8.95;;;1.88;;
69989;SDS011;57331;52.054;5.294;2022-10-24T08:06:18;12.68;;;2.17;;
69989;SDS011;57331;52.054;5.294;2022-10-24T08:08:47;5.63;;;1.48;;
69989;SDS011;57331;52.054;5.294;2022-10-24T08:11:19;8.10;;;1.50;;
69989;SDS011;57331;52.054;5.294;2022-10-24T08:13:48;5.50;;;1.58;;
69989;SDS011;57331;52.054;5.294;2022-10-24T08:16:17;7.75;;;1.85;;
69989;SDS011;57331;52.054;5.294;2022-10-24T08:18:46;13.75;;;2.28;;
69989;SDS011;57331;52.054;5.294;2022-10-24T08:21:14;8.18;;;1.45;;
69989;SDS011;57331;52.054;5.294;2022-10-24T08:23:43;8.23;;;1.70;;
69989;SDS011;57331;52.054;5.294;2022-10-24T08:26:12;5.10;;;1.40;;
69989;SDS011;57331;52.054;5.294;2022-10-24T08:28:41;7.68;;;1.92;;
69989;SDS011;57331;52.054;5.294;2022-10-24T08:31:15;10.18;;;2.22;;
69989;SDS011;57331;52.054;5.294;2022-10-24T08:33:44;9.35;;;1.70;;
69989;SDS011;57331;52.054;5.294;2022-10-24T08:36:13;7.22;;;1.67;;
69989;SDS011;57331;52.054;5.294;2022-10-24T08:38:51;5.18;;;1.42;;
69989;SDS011;57331;52.054;5.294;2022-10-24T08:42:20;13.98;;;2.22;;
69989;SDS011;57331;52.054;5.294;2022-10-24T08:44:29;4.88;;;1.50;;
69989;SDS011;57331;52.054;5.294;2022-10-24T08:49:50;7.85;;;1.67;;
69989;SDS011;57331;52.054;5.294;2022-10-24T08:54:50;8.63;;;1.70;;
69989;SDS011;57331;52.054;5.294;2022-10-24T08:57:19;7.10;;;1.88;;
69989;SDS011;57331;52.054;5.294;2022-10-24T08:59:51;11.95;;;2.08;;
69989;SDS011;57331;52.054;5.294;2022-10-24T09:02:22;5.97;;;1.52;;
69989;SDS011;57331;52.054;5.294;2022-10-24T09:04:55;6.15;;;1.60;;
69989;SDS011;57331;52.054;5.294;2022-10-24T09:07:25;7.72;;;1.70;;
69989;SDS011;57331;52.054;5.294;2022-10-24T09:10:09;5.68;;;1.73;;
69989;SDS011;57331;52.054;5.294;2022-10-24T09:12:41;8.90;;;1.83;;
69989;SDS011;57331;52.054;5.294;2022-10-24T09:15:16;7.25;;;1.92;;
69989;SDS011;57331;52.054;5.294;2022-10-24T09:17:49;6.10;;;1.55;;
69989;SDS011;57331;52.054;5.294;2022-10-24T09:20:27;7.18;;;1.75;;
69989;SDS011;57331;52.054;5.294;2022-10-24T09:23:00;9.32;;;1.63;;
69989;SDS011;57331;52.054;5.294;2022-10-24T09:25:36;6.18;;;1.60;;
69989;SDS011;57331;52.054;5.294;2022-10-24T09:28:06;5.72;;;1.55;;
69989;SDS011;57331;52.054;5.294;2022-10-24T09:30:33;6.65;;;2.03;;
69989;SDS011;57331;52.054;5.294;2022-10-24T09:35:52;8.60;;;2.03;;
69989;SDS011;57331;52.054;5.294;2022-10-24T09:38:27;6.15;;;1.73;;
69989;SDS011;57331;52.054;5.294;2022-10-24T09:40:55;7.10;;;1.67;;
69989;SDS011;57331;52.054;5.294;2022-10-24T09:46:12;6.07;;;1.48;;
69989;SDS011;57331;52.054;5.294;2022-10-24T09:49:30;4.97;;;1.35;;
69989;SDS011;57331;52.054;5.294;2022-10-24T09:52:02;9.05;;;1.70;;
69989;SDS011;57331;52.054;5.294;2022-10-24T09:54:34;8.88;;;2.00;;
69989;SDS011;57331;52.054;5.294;2022-10-24T09:59:46;8.52;;;1.92;;
69989;SDS011;57331;52.054;5.294;2022-10-24T10:04:58;6.03;;;1.88;;
69989;SDS011;57331;52.054;5.294;2022-10-24T10:07:33;8.43;;;1.90;;
69989;SDS011;57331;52.054;5.294;2022-10-24T10:12:46;7.05;;;1.60;;
69989;SDS011;57331;52.054;5.294;2022-10-24T10:18:03;11.10;;;2.45;;
69989;SDS011;57331;52.054;5.294;2022-10-24T10:20:56;13.43;;;2.22;;
69989;SDS011;57331;52.054;5.294;2022-10-24T10:23:25;12.52;;;1.58;;
69989;SDS011;57331;52.054;5.294;2022-10-24T10:26:11;7.13;;;2.28;;
69989;SDS011;57331;52.054;5.294;2022-10-24T10:28:50;6.70;;;1.55;;
69989;SDS011;57331;52.054;5.294;2022-10-24T10:31:27;6.68;;;2.20;;
69989;SDS011;57331;52.054;5.294;2022-10-24T10:34:20;9.48;;;2.45;;
69989;SDS011;57331;52.054;5.294;2022-10-24T10:43:19;7.50;;;1.92;;
69989;SDS011;57331;52.054;5.294;2022-10-24T10:48:44;7.05;;;2.03;;
69989;SDS011;57331;52.054;5.294;2022-10-24T10:51:45;10.40;;;2.00;;
69989;SDS011;57331;52.054;5.294;2022-10-24T10:54:33;6.70;;;2.25;;
69989;SDS011;57331;52.054;5.294;2022-10-24T10:57:16;5.32;;;1.60;;
69989;SDS011;57331;52.054;5.294;2022-10-24T10:59:50;6.05;;;1.88;;
69989;SDS011;57331;52.054;5.294;2022-10-24T11:10:13;7.35;;;1.85;;
69989;SDS011;57331;52.054;5.294;2022-10-24T11:12:45;8.27;;;2.00;;
69989;SDS011;57331;52.054;5.294;2022-10-24T11:15:17;5.75;;;1.77;;
69989;SDS011;57331;52.054;5.294;2022-10-24T11:17:51;7.50;;;1.77;;
69989;SDS011;57331;52.054;5.294;2022-10-24T11:20:33;8.80;;;2.15;;
69989;SDS011;57331;52.054;5.294;2022-10-24T11:23:05;6.45;;;1.73;;
69989;SDS011;57331;52.054;5.294;2022-10-24T11:25:45;6.80;;;2.05;;
69989;SDS011;57331;52.054;5.294;2022-10-24T11:33:35;5.93;;;1.92;;
69989;SDS011;57331;52.054;5.294;2022-10-24T11:36:13;7.38;;;2.13;;
69989;SDS011;57331;52.054;5.294;2022-10-24T11:41:34;8.65;;;2.15;;
69989;SDS011;57331;52.054;5.294;2022-10-24T11:49:41;5.65;;;2.00;;
69989;SDS011;57331;52.054;5.294;2022-10-24T11:57:42;3.88;;;1.58;;
69989;SDS011;57331;52.054;5.294;2022-10-24T12:00:16;5.55;;;1.88;;
69989;SDS011;57331;52.054;5.294;2022-10-24T12:15:58;8.40;;;2.60;;
69989;SDS011;57331;52.054;5.294;2022-10-24T12:21:08;10.57;;;2.05;;
69989;SDS011;57331;52.054;5.294;2022-10-24T12:23:38;12.15;;;3.15;;
69989;SDS011;57331;52.054;5.294;2022-10-24T12:28:39;5.50;;;1.80;;
69989;SDS011;57331;52.054;5.294;2022-10-24T12:31:09;7.38;;;2.00;;
69989;SDS011;57331;52.054;5.294;2022-10-24T12:33:40;8.15;;;2.38;;
69989;SDS011;57331;52.054;5.294;2022-10-24T12:36:08;8.20;;;2.10;;
69989;SDS011;57331;52.054;5.294;2022-10-24T12:43:38;5.65;;;2.00;;
69989;SDS011;57331;52.054;5.294;2022-10-24T12:51:34;8.25;;;2.00;;
69989;SDS011;57331;52.054;5.294;2022-10-24T12:54:04;4.40;;;1.70;;
69989;SDS011;57331;52.054;5.294;2022-10-24T13:01:47;9.88;;;2.00;;
69989;SDS011;57331;52.054;5.294;2022-10-24T13:04:25;7.47;;;1.77;;
69989;SDS011;57331;52.054;5.294;2022-10-24T13:15:14;10.40;;;2.40;;
69989;SDS011;57331;52.054;5.294;2022-10-24T13:20:25;4.28;;;1.75;;
69989;SDS011;57331;52.054;5.294;2022-10-24T13:23:28;11.50;;;2.38;;
69989;SDS011;57331;52.054;5.294;2022-10-24T13:25:53;11.68;;;2.92;;
69989;SDS011;57331;52.054;5.294;2022-10-24T13:41:18;10.55;;;3.72;;
69989;SDS011;57331;52.054;5.294;2022-10-24T13:43:49;8.15;;;2.40;;
69989;SDS011;57331;52.054;5.294;2022-10-24T13:46:21;13.32;;;2.90;;
69989;SDS011;57331;52.054;5.294;2022-10-24T13:48:59;11.57;;;3.47;;
69989;SDS011;57331;52.054;5.294;2022-10-24T13:51:45;6.82;;;2.10;;
69989;SDS011;57331;52.054;5.294;2022-10-24T13:54:22;7.75;;;2.10;;
69989;SDS011;57331;52.054;5.294;2022-10-24T13:56:52;8.45;;;2.35;;
69989;SDS011;57331;52.054;5.294;2022-10-24T13:59:28;11.70;;;2.38;;
69989;SDS011;57331;52.054;5.294;2022-10-24T14:01:55;10.30;;;2.65;;
69989;SDS011;57331;52.054;5.294;2022-10-24T14:04:25;10.90;;;1.92;;
69989;SDS011;57331;52.054;5.294;2022-10-24T14:06:58;8.90;;;2.50;;
69989;SDS011;57331;52.054;5.294;2022-10-24T14:09:40;9.65;;;1.95;;
69989;SDS011;57331;52.054;5.294;2022-10-24T14:12:22;6.90;;;2.22;;
69989;SDS011;57331;52.054;5.294;2022-10-24T14:14:51;8.13;;;2.28;;
69989;SDS011;57331;52.054;5.294;2022-10-24T14:17:23;11.52;;;2.55;;
69989;SDS011;57331;52.054;5.294;2022-10-24T14:22:47;7.07;;;2.53;;
69989;SDS011;57331;52.054;5.294;2022-10-24T14:25:25;13.00;;;2.42;;
69989;SDS011;57331;52.054;5.294;2022-10-24T14:28:10;8.10;;;2.60;;
69989;SDS011;57331;52.054;5.294;2022-10-24T14:30:51;9.07;;;2.47;;
69989;SDS011;57331;52.054;5.294;2022-10-24T14:33:23;6.43;;;1.92;;
69989;SDS011;57331;52.054;5.294;2022-10-24T14:35:53;8.45;;;2.45;;
69989;SDS011;57331;52.054;5.294;2022-10-24T14:38:23;9.90;;;2.40;;
69989;SDS011;57331;52.054;5.294;2022-10-24T14:40:53;7.07;;;1.92;;
69989;SDS011;57331;52.054;5.294;2022-10-24T14:43:33;8.52;;;2.20;;
69989;SDS011;57331;52.054;5.294;2022-10-24T14:48:39;10.65;;;1.83;;
69989;SDS011;57331;52.054;5.294;2022-10-24T14:51:16;12.82;;;1.95;;
69989;SDS011;57331;52.054;5.294;2022-10-24T14:53:47;8.73;;;2.53;;
69989;SDS011;57331;52.054;5.294;2022-10-24T14:56:19;4.70;;;1.80;;
69989;SDS011;57331;52.054;5.294;2022-10-24T14:58:53;8.60;;;1.80;;
69989;SDS011;57331;52.054;5.294;2022-10-24T15:01:22;8.27;;;2.10;;
69989;SDS011;57331;52.054;5.294;2022-10-24T15:03:51;8.38;;;2.40;;
69989;SDS011;57331;52.054;5.294;2022-10-24T15:06:24;13.63;;;2.75;;
69989;SDS011;57331;52.054;5.294;2022-10-24T15:08:59;10.05;;;2.50;;
69989;SDS011;57331;52.054;5.294;2022-10-24T15:11:57;8.98;;;1.80;;
69989;SDS011;57331;52.054;5.294;2022-10-24T15:14:30;10.07;;;1.90;;
69989;SDS011;57331;52.054;5.294;2022-10-24T15:17:03;4.78;;;1.38;;
69989;SDS011;57331;52.054;5.294;2022-10-24T15:19:44;11.13;;;2.20;;
69989;SDS011;57331;52.054;5.294;2022-10-24T15:22:35;7.90;;;1.80;;
69989;SDS011;57331;52.054;5.294;2022-10-24T15:25:06;5.82;;;1.90;;
69989;SDS011;57331;52.054;5.294;2022-10-24T15:27:44;7.15;;;2.08;;
69989;SDS011;57331;52.054;5.294;2022-10-24T15:32:44;8.32;;;1.75;;
69989;SDS011;57331;52.054;5.294;2022-10-24T15:35:11;9.05;;;2.38;;
69989;SDS011;57331;52.054;5.294;2022-10-24T15:37:39;8.30;;;2.00;;
69989;SDS011;57331;52.054;5.294;2022-10-24T15:40:21;4.80;;;2.00;;
69989;SDS011;57331;52.054;5.294;2022-10-24T15:42:51;7.00;;;1.77;;
69989;SDS011;57331;52.054;5.294;2022-10-24T15:45:19;7.90;;;1.73;;
69989;SDS011;57331;52.054;5.294;2022-10-24T15:47:46;9.95;;;1.70;;
69989;SDS011;57331;52.054;5.294;2022-10-24T15:50:14;6.35;;;2.10;;
69989;SDS011;57331;52.054;5.294;2022-10-24T15:52:44;10.80;;;1.92;;
69989;SDS011;57331;52.054;5.294;2022-10-24T15:55:17;10.75;;;2.15;;
69989;SDS011;57331;52.054;5.294;2022-10-24T15:57:46;9.32;;;1.80;;
69989;SDS011;57331;52.054;5.294;2022-10-24T16:00:14;4.28;;;1.50;;
69989;SDS011;57331;52.054;5.294;2022-10-24T16:02:41;8.70;;;2.08;;
69989;SDS011;57331;52.054;5.294;2022-10-24T16:05:18;6.15;;;1.80;;
69989;SDS011;57331;52.054;5.294;2022-10-24T16:07:51;9.13;;;1.73;;
69989;SDS011;57331;52.054;5.294;2022-10-24T16:10:19;12.85;;;1.90;;
69989;SDS011;57331;52.054;5.294;2022-10-24T16:12:48;6.15;;;1.50;;
69989;SDS011;57331;52.054;5.294;2022-10-24T16:15:20;8.70;;;2.25;;
69989;SDS011;57331;52.054;5.294;2022-10-24T16:17:54;12.23;;;2.28;;
69989;SDS011;57331;52.054;5.294;2022-10-24T16:20:22;8.73;;;1.77;;
69989;SDS011;57331;52.054;5.294;2022-10-24T16:22:49;9.98;;;1.90;;
69989;SDS011;57331;52.054;5.294;2022-10-24T16:25:26;10.68;;;2.15;;
69989;SDS011;57331;52.054;5.294;2022-10-24T16:27:55;14.40;;;2.30;;
69989;SDS011;57331;52.054;5.294;2022-10-24T16:30:23;9.47;;;2.00;;
69989;SDS011;57331;52.054;5.294;2022-10-24T16:32:52;11.38;;;2.67;;
69989;SDS011;57331;52.054;5.294;2022-10-24T16:35:21;13.50;;;2.58;;
69989;SDS011;57331;52.054;5.294;2022-10-24T16:37:56;14.82;;;2.30;;
69989;SDS011;57331;52.054;5.294;2022-10-24T16:40:25;13.88;;;2.15;;
69989;SDS011;57331;52.054;5.294;2022-10-24T16:42:53;11.82;;;2.30;;
69989;SDS011;57331;52.054;5.294;2022-10-24T16:45:21;13.30;;;3.13;;
69989;SDS011;57331;52.054;5.294;2022-10-24T16:47:49;6.53;;;1.98;;
69989;SDS011;57331;52.054;5.294;2022-10-24T16:50:18;10.05;;;2.83;;
69989;SDS011;57331;52.054;5.294;2022-10-24T16:52:53;18.15;;;2.50;;
69989;SDS011;57331;52.054;5.294;2022-10-24T16:55:28;11.20;;;2.43;;
69989;SDS011;57331;52.054;5.294;2022-10-24T16:57:56;9.60;;;2.03;;
69989;SDS011;57331;52.054;5.294;2022-10-24T17:00:23;9.02;;;2.75;;
69989;SDS011;57331;52.054;5.294;2022-10-24T17:02:51;11.80;;;3.00;;
69989;SDS011;57331;52.054;5.294;2022-10-24T17:05:21;13.00;;;2.63;;
69989;SDS011;57331;52.054;5.294;2022-10-24T17:07:49;11.60;;;2.33;;
69989;SDS011;57331;52.054;5.294;2022-10-24T17:10:16;15.88;;;3.15;;
69989;SDS011;57331;52.054;5.294;2022-10-24T17:12:49;8.95;;;2.67;;
69989;SDS011;57331;52.054;5.294;2022-10-24T17:15:17;11.13;;;2.80;;
69989;SDS011;57331;52.054;5.294;2022-10-24T17:17:47;10.68;;;3.08;;
69989;SDS011;57331;52.054;5.294;2022-10-24T17:20:15;11.38;;;3.10;;
69989;SDS011;57331;52.054;5.294;2022-10-24T17:22:43;11.70;;;2.83;;
69989;SDS011;57331;52.054;5.294;2022-10-24T17:25:23;13.25;;;3.92;;
69989;SDS011;57331;52.054;5.294;2022-10-24T17:27:52;8.63;;;3.00;;
69989;SDS011;57331;52.054;5.294;2022-10-24T17:30:23;11.38;;;3.42;;
69989;SDS011;57331;52.054;5.294;2022-10-24T17:32:52;14.13;;;4.17;;
69989;SDS011;57331;52.054;5.294;2022-10-24T17:35:21;13.02;;;4.22;;